createdAt,value
2022-10-02T00:01:47.142Z,11.20
2022-10-02T00:03:47.081Z,11.20
2022-10-02T00:05:57.867Z,11.20
2022-10-02T00:07:57.820Z,11.20
2022-10-02T00:09:57.862Z,11.20
2022-10-02T00:11:59.928Z,11.20
2022-10-02T00:13:57.882Z,11.20
2022-10-02T00:15:57.934Z,11.20
2022-10-02T00:17:57.855Z,11.20
2022-10-02T00:19:57.880Z,11.20
2022-10-02T00:21:57.913Z,11.10
2022-10-02T00:23:57.874Z,11.10
2022-10-02T00:25:57.931Z,11.10
2022-10-02T00:27:57.958Z,11.10
2022-10-02T00:29:57.997Z,11.00
2022-10-02T00:31:57.986Z,11.00
2022-10-02T00:33:57.869Z,10.90
2022-10-02T00:35:57.890Z,10.90
2022-10-02T00:37:57.882Z,11.00
2022-10-02T00:39:57.876Z,11.00
2022-10-02T00:41:57.909Z,11.00
2022-10-02T00:43:57.999Z,11.10
2022-10-02T00:45:57.975Z,11.10
2022-10-02T00:47:57.895Z,11.10
2022-10-02T00:49:57.934Z,11.10
2022-10-02T00:51:57.857Z,11.10
2022-10-02T00:53:57.881Z,11.20
2022-10-02T00:55:57.878Z,11.20
2022-10-02T00:57:57.908Z,11.20
2022-10-02T00:59:57.872Z,11.20
2022-10-02T01:01:57.964Z,11.20
2022-10-02T01:03:57.873Z,11.20
2022-10-02T01:05:57.872Z,11.20
2022-10-02T01:07:57.878Z,11.20
2022-10-02T01:09:57.888Z,11.20
2022-10-02T01:11:57.879Z,11.20
2022-10-02T01:13:57.869Z,11.20
2022-10-02T01:15:57.960Z,11.20
2022-10-02T01:17:57.956Z,11.20
2022-10-02T01:19:57.913Z,11.20
2022-10-02T01:21:57.907Z,11.20
2022-10-02T01:23:57.972Z,11.20
2022-10-02T01:25:57.945Z,11.10
2022-10-02T01:27:58.036Z,11.10
2022-10-02T01:29:57.870Z,11.10
2022-10-02T01:31:57.960Z,11.10
2022-10-02T01:34:27.886Z,11.10
2022-10-02T01:36:27.937Z,11.10
2022-10-02T01:38:27.886Z,11.10
2022-10-02T01:40:27.922Z,11.10
2022-10-02T01:42:28.000Z,11.10
2022-10-02T01:44:27.895Z,11.10
2022-10-02T01:46:27.957Z,11.10
2022-10-02T01:48:28.076Z,11.10
2022-10-02T01:50:27.938Z,11.00
2022-10-02T01:52:27.951Z,11.00
2022-10-02T01:54:27.908Z,11.00
2022-10-02T01:56:27.991Z,11.00
2022-10-02T01:58:27.942Z,11.00
2022-10-02T02:00:27.900Z,11.00
2022-10-02T02:02:27.944Z,11.00
2022-10-02T02:04:27.958Z,11.00
2022-10-02T02:06:27.949Z,11.00
2022-10-02T02:08:27.901Z,11.00
2022-10-02T02:10:27.918Z,11.00
2022-10-02T02:12:28.004Z,11.00
2022-10-02T02:14:27.947Z,11.00
2022-10-02T02:16:28.051Z,11.00
2022-10-02T02:18:27.955Z,11.00
2022-10-02T02:20:28.066Z,11.00
2022-10-02T02:22:27.901Z,11.00
2022-10-02T02:24:27.999Z,11.00
2022-10-02T02:26:27.964Z,11.00
2022-10-02T02:28:27.973Z,11.00
2022-10-02T02:30:27.986Z,11.00
2022-10-02T02:32:27.909Z,11.00
2022-10-02T02:34:27.962Z,11.00
2022-10-02T02:36:27.997Z,11.00
2022-10-02T02:38:27.969Z,11.00
2022-10-02T02:40:27.991Z,11.00
2022-10-02T02:42:27.993Z,11.00
2022-10-02T02:44:27.944Z,11.00
2022-10-02T02:46:27.941Z,11.00
2022-10-02T02:48:28.099Z,11.00
2022-10-02T02:50:27.978Z,11.00
2022-10-02T02:52:27.929Z,11.00
2022-10-02T02:54:27.949Z,11.00
2022-10-02T02:56:27.953Z,11.00
2022-10-02T02:58:27.929Z,11.00
2022-10-02T03:00:27.969Z,11.00
2022-10-02T03:02:28.016Z,11.00
2022-10-02T03:04:27.961Z,11.00
2022-10-02T03:06:27.981Z,11.00
2022-10-02T03:08:27.988Z,11.00
2022-10-02T03:10:27.975Z,11.00
2022-10-02T03:12:27.973Z,11.00
2022-10-02T03:14:27.949Z,11.00
2022-10-02T03:16:27.975Z,11.00
2022-10-02T03:18:27.980Z,11.00
2022-10-02T03:20:27.989Z,11.00
2022-10-02T03:22:28.011Z,11.00
2022-10-02T03:24:27.945Z,11.00
2022-10-02T03:26:28.054Z,11.00
2022-10-02T03:28:53.760Z,11.00
2022-10-02T03:30:28.021Z,11.00
2022-10-02T03:32:28.006Z,11.00
2022-10-02T03:34:57.977Z,11.00
2022-10-02T03:36:58.214Z,11.00
2022-10-02T03:39:20.252Z,11.00
2022-10-02T03:40:58.249Z,11.00
2022-10-02T03:42:58.087Z,11.00
2022-10-02T03:44:57.995Z,11.00
2022-10-02T03:46:57.983Z,11.00
2022-10-02T03:48:58.136Z,11.00
2022-10-02T03:50:58.054Z,11.00
2022-10-02T03:52:58.049Z,11.00
2022-10-02T03:54:58.003Z,11.00
2022-10-02T03:56:57.988Z,11.00
2022-10-02T03:58:57.984Z,11.00
2022-10-02T04:00:58.008Z,11.00
2022-10-02T04:02:57.996Z,11.00
2022-10-02T04:04:58.211Z,11.00
2022-10-02T04:06:58.089Z,11.00
2022-10-02T04:08:57.990Z,11.00
2022-10-02T04:10:58.053Z,11.00
2022-10-02T04:12:58.010Z,11.00
2022-10-02T04:14:58.069Z,11.00
2022-10-02T04:16:57.996Z,11.00
2022-10-02T04:18:58.134Z,11.10
2022-10-02T04:20:58.022Z,11.10
2022-10-02T04:22:58.007Z,11.20
2022-10-02T04:24:58.095Z,11.20
2022-10-02T04:26:58.018Z,11.20
2022-10-02T04:28:58.036Z,11.20
2022-10-02T04:30:58.007Z,11.20
2022-10-02T04:32:58.045Z,11.20
2022-10-02T04:34:58.000Z,11.20
2022-10-02T04:36:58.012Z,11.20
2022-10-02T04:38:58.043Z,11.20
2022-10-02T04:40:58.072Z,11.20
2022-10-02T04:42:58.009Z,11.20
2022-10-02T04:44:58.011Z,11.20
2022-10-02T04:46:58.062Z,11.20
2022-10-02T04:48:58.036Z,11.20
2022-10-02T04:50:58.032Z,11.20
2022-10-02T04:52:58.015Z,11.20
2022-10-02T04:54:58.058Z,11.20
2022-10-02T04:56:58.044Z,11.20
2022-10-02T04:58:58.048Z,11.20
2022-10-02T05:00:58.081Z,11.20
2022-10-02T05:02:58.028Z,11.20
2022-10-02T05:04:58.057Z,11.10
2022-10-02T05:06:58.163Z,11.10
2022-10-02T05:08:58.044Z,11.10
2022-10-02T05:10:59.282Z,11.10
2022-10-02T05:12:58.038Z,11.10
2022-10-02T05:14:58.090Z,11.10
2022-10-02T05:16:58.068Z,11.10
2022-10-02T05:18:58.059Z,11.00
2022-10-02T05:20:58.104Z,10.90
2022-10-02T05:22:58.028Z,10.90
2022-10-02T05:24:58.053Z,10.90
2022-10-02T05:26:58.053Z,10.90
2022-10-02T05:28:58.035Z,10.80
2022-10-02T05:30:58.128Z,10.80
2022-10-02T05:33:28.052Z,10.80
2022-10-02T05:35:28.055Z,10.90
2022-10-02T05:37:28.062Z,10.90
2022-10-02T05:39:28.063Z,10.90
2022-10-02T05:41:28.082Z,10.90
2022-10-02T05:43:28.060Z,10.80
2022-10-02T05:45:28.092Z,10.80
2022-10-02T05:47:28.158Z,10.70
2022-10-02T05:49:28.065Z,10.60
2022-10-02T05:51:28.040Z,10.60
2022-10-02T05:53:28.061Z,10.60
2022-10-02T05:55:28.104Z,10.70
2022-10-02T05:57:28.045Z,10.60
2022-10-02T05:59:28.101Z,10.60
2022-10-02T06:01:28.266Z,10.60
2022-10-02T06:03:28.166Z,10.70
2022-10-02T06:05:28.159Z,10.70
2022-10-02T06:07:28.096Z,10.70
2022-10-02T06:09:28.077Z,10.70
2022-10-02T06:11:28.115Z,10.70
2022-10-02T06:13:28.050Z,10.80
2022-10-02T06:15:28.165Z,10.80
2022-10-02T06:17:28.208Z,10.80
2022-10-02T06:19:28.091Z,10.80
2022-10-02T06:21:28.093Z,10.80
2022-10-02T06:23:28.218Z,10.80
2022-10-02T06:25:28.137Z,10.80
2022-10-02T06:27:28.108Z,10.80
2022-10-02T06:29:28.114Z,10.80
2022-10-02T06:31:28.111Z,10.80
2022-10-02T06:33:28.152Z,10.80
2022-10-02T06:35:28.070Z,10.80
2022-10-02T06:37:28.280Z,10.80
2022-10-02T06:39:28.160Z,10.80
2022-10-02T06:41:28.145Z,10.80
2022-10-02T06:43:28.145Z,10.80
2022-10-02T06:45:28.346Z,10.80
2022-10-02T06:47:28.159Z,10.80
2022-10-02T06:49:28.102Z,10.80
2022-10-02T06:51:28.221Z,10.80
2022-10-02T06:53:28.332Z,10.80
2022-10-02T06:55:28.248Z,10.80
2022-10-02T06:57:28.167Z,10.80
2022-10-02T06:59:28.160Z,10.90
2022-10-02T07:01:28.091Z,10.90
2022-10-02T07:03:28.204Z,10.90
2022-10-02T07:05:29.352Z,10.90
2022-10-02T07:07:28.282Z,10.90
2022-10-02T07:09:28.172Z,11.00
2022-10-02T07:11:35.421Z,11.00
2022-10-02T07:15:28.184Z,11.00
2022-10-02T07:17:29.896Z,11.00
2022-10-02T07:19:43.056Z,11.00
2022-10-02T07:21:43.019Z,11.00
2022-10-02T07:23:43.120Z,11.00
2022-10-02T07:25:43.033Z,11.00
2022-10-02T07:27:43.043Z,11.00
2022-10-02T07:29:43.030Z,11.00
2022-10-02T07:31:43.065Z,11.00
2022-10-02T07:33:43.135Z,10.90
2022-10-02T07:35:43.047Z,11.00
2022-10-02T07:37:43.000Z,11.00
2022-10-02T07:39:43.142Z,11.00
2022-10-02T07:41:43.110Z,11.00
2022-10-02T07:43:43.024Z,11.00
2022-10-02T07:45:43.063Z,11.10
2022-10-02T07:47:43.214Z,11.10
2022-10-02T07:49:43.128Z,11.10
2022-10-02T07:51:43.073Z,11.10
2022-10-02T07:53:43.135Z,11.10
2022-10-02T07:55:43.117Z,11.20
2022-10-02T07:57:43.020Z,11.20
2022-10-02T07:59:43.036Z,11.20
2022-10-02T08:01:43.062Z,11.30
2022-10-02T08:03:43.034Z,11.30
2022-10-02T08:05:43.118Z,11.30
2022-10-02T08:07:43.074Z,11.40
2022-10-02T08:09:43.060Z,11.40
2022-10-02T08:11:46.122Z,11.40
2022-10-02T08:13:43.163Z,11.40
2022-10-02T08:15:43.063Z,11.40
2022-10-02T08:17:43.092Z,11.40
2022-10-02T08:19:43.074Z,11.40
2022-10-02T08:21:43.104Z,11.30
2022-10-02T08:23:43.102Z,11.40
2022-10-02T08:25:43.145Z,11.40
2022-10-02T08:27:43.135Z,11.40
2022-10-02T08:29:43.102Z,11.30
2022-10-02T08:32:13.195Z,11.40
2022-10-02T08:34:13.071Z,11.40
2022-10-02T08:36:13.117Z,11.40
2022-10-02T08:38:13.133Z,11.40
2022-10-02T08:40:13.134Z,11.40
2022-10-02T08:42:13.068Z,11.50
2022-10-02T08:44:13.202Z,11.50
2022-10-02T08:46:13.157Z,11.50
2022-10-02T08:48:13.076Z,11.50
2022-10-02T08:50:13.103Z,11.50
2022-10-02T08:52:13.049Z,11.50
2022-10-02T08:54:13.130Z,11.50
2022-10-02T08:56:17.748Z,11.50
2022-10-02T08:58:13.160Z,11.40
2022-10-02T09:00:13.185Z,11.40
2022-10-02T09:02:14.129Z,11.40
2022-10-02T09:04:13.099Z,11.40
2022-10-02T09:06:13.107Z,11.50
2022-10-02T09:08:13.267Z,11.50
2022-10-02T09:10:13.178Z,11.50
2022-10-02T09:12:13.216Z,11.50
2022-10-02T09:14:13.223Z,11.60
2022-10-02T09:16:13.255Z,11.60
2022-10-02T09:18:13.107Z,11.50
2022-10-02T09:20:13.129Z,11.60
2022-10-02T09:22:13.138Z,11.60
2022-10-02T09:24:13.154Z,11.60
2022-10-02T09:26:13.224Z,11.60
2022-10-02T09:28:13.208Z,11.60
2022-10-02T09:30:13.242Z,11.60
2022-10-02T09:32:13.142Z,11.60
2022-10-02T09:34:13.268Z,11.70
2022-10-02T09:36:13.129Z,11.70
2022-10-02T09:38:13.106Z,11.80
2022-10-02T09:40:13.082Z,11.80
2022-10-02T09:42:13.145Z,12.00
2022-10-02T09:44:13.173Z,12.10
2022-10-02T09:46:13.180Z,12.30
2022-10-02T09:48:13.103Z,12.50
2022-10-02T09:50:13.117Z,12.50
2022-10-02T09:52:13.160Z,12.80
2022-10-02T09:54:13.173Z,12.90
2022-10-02T09:56:16.653Z,12.90
2022-10-02T09:58:13.211Z,13.30
2022-10-02T10:00:13.275Z,13.30
2022-10-02T10:02:13.210Z,13.20
2022-10-02T10:04:13.231Z,13.00
2022-10-02T10:06:13.204Z,12.60
2022-10-02T10:08:13.108Z,12.60
2022-10-02T10:10:13.205Z,12.40
2022-10-02T10:12:13.104Z,12.30
2022-10-02T10:14:13.140Z,12.10
2022-10-02T10:16:13.382Z,12.20
2022-10-02T10:18:13.174Z,12.20
2022-10-02T10:20:13.186Z,12.10
2022-10-02T10:22:13.204Z,12.00
2022-10-02T10:24:13.175Z,12.00
2022-10-02T10:26:13.216Z,12.00
2022-10-02T10:28:13.182Z,12.00
2022-10-02T10:30:13.122Z,12.00
2022-10-02T10:32:43.229Z,12.00
2022-10-02T10:34:43.168Z,12.00
2022-10-02T10:36:46.592Z,12.00
2022-10-02T10:38:43.181Z,11.90
2022-10-02T10:40:43.237Z,11.90
2022-10-02T10:43:06.026Z,11.80
2022-10-02T10:44:43.239Z,11.70
2022-10-02T10:46:43.233Z,11.80
2022-10-02T10:48:48.507Z,11.70
2022-10-02T10:50:43.257Z,11.70
2022-10-02T10:52:43.218Z,11.70
2022-10-02T10:54:43.260Z,11.80
2022-10-02T10:56:43.215Z,11.70
2022-10-02T10:58:43.182Z,11.70
2022-10-02T11:00:43.350Z,11.70
2022-10-02T11:02:43.317Z,11.80
2022-10-02T11:04:43.309Z,11.70
2022-10-02T11:06:46.068Z,11.80
2022-10-02T11:08:43.348Z,11.80
2022-10-02T11:10:43.187Z,11.80
2022-10-02T11:12:43.286Z,11.80
2022-10-02T11:14:43.242Z,11.80
2022-10-02T11:16:43.384Z,11.80
2022-10-02T11:18:43.184Z,11.80
2022-10-02T11:20:43.203Z,11.90
2022-10-02T11:22:43.258Z,12.00
2022-10-02T11:24:43.216Z,12.00
2022-10-02T11:26:43.217Z,12.00
2022-10-02T11:28:43.274Z,12.00
2022-10-02T11:30:43.304Z,12.00
2022-10-02T11:32:43.266Z,12.00
2022-10-02T11:34:43.415Z,12.00
2022-10-02T11:36:43.352Z,12.00
2022-10-02T11:38:43.306Z,12.10
2022-10-02T11:40:43.234Z,12.20
2022-10-02T11:42:43.197Z,12.40
2022-10-02T11:44:43.302Z,12.40
2022-10-02T11:46:44.356Z,12.40
2022-10-02T11:48:43.284Z,12.40
2022-10-02T11:50:43.317Z,12.40
2022-10-02T11:52:47.970Z,12.30
2022-10-02T11:54:43.222Z,12.20
2022-10-02T11:56:43.265Z,12.20
2022-10-02T11:58:43.284Z,12.20
2022-10-02T12:00:43.264Z,12.10
2022-10-02T12:02:43.359Z,12.10
2022-10-02T12:04:43.334Z,12.10
2022-10-02T12:06:43.224Z,12.10
2022-10-02T12:08:43.276Z,12.10
2022-10-02T12:10:43.235Z,12.00
2022-10-02T12:12:43.277Z,12.10
2022-10-02T12:14:43.298Z,12.10
2022-10-02T12:16:43.376Z,12.20
2022-10-02T12:18:43.207Z,12.30
2022-10-02T12:20:43.352Z,12.40
2022-10-02T12:22:43.257Z,12.50
2022-10-02T12:24:43.250Z,12.50
2022-10-02T12:26:43.252Z,12.50
2022-10-02T12:28:43.320Z,12.50
2022-10-02T12:31:13.313Z,12.30
2022-10-02T12:33:13.298Z,12.20
2022-10-02T12:35:13.296Z,12.20
2022-10-02T12:37:13.355Z,12.20
2022-10-02T12:39:13.255Z,12.20
2022-10-02T12:41:13.246Z,12.20
2022-10-02T12:43:13.330Z,12.20
2022-10-02T12:45:13.265Z,12.20
2022-10-02T12:47:13.333Z,12.20
2022-10-02T12:49:13.361Z,12.30
2022-10-02T12:51:13.319Z,12.30
2022-10-02T12:53:13.243Z,12.30
2022-10-02T12:55:13.248Z,12.20
2022-10-02T12:57:13.219Z,12.20
2022-10-02T12:59:13.285Z,12.30
2022-10-02T13:01:13.336Z,12.30
2022-10-02T13:03:13.362Z,12.30
2022-10-02T13:05:13.372Z,12.40
2022-10-02T13:07:13.317Z,12.40
2022-10-02T13:09:13.294Z,12.40
2022-10-02T13:11:13.250Z,12.40
2022-10-02T13:13:13.311Z,12.40
2022-10-02T13:15:13.324Z,12.20
2022-10-02T13:17:13.344Z,12.20
2022-10-02T13:19:13.426Z,12.20
2022-10-02T13:21:13.362Z,12.20
2022-10-02T13:23:13.398Z,12.00
2022-10-02T13:25:13.303Z,11.80
2022-10-02T13:27:13.298Z,11.80
2022-10-02T13:29:13.329Z,11.80
2022-10-02T13:31:13.309Z,11.80
2022-10-02T13:33:13.332Z,11.80
2022-10-02T13:35:13.386Z,11.90
2022-10-02T13:37:13.368Z,11.90
2022-10-02T13:39:13.315Z,11.90
2022-10-02T13:41:13.355Z,12.00
2022-10-02T13:43:13.370Z,11.90
2022-10-02T13:45:13.417Z,12.00
2022-10-02T13:47:13.485Z,12.00
2022-10-02T13:49:13.393Z,12.00
2022-10-02T13:51:13.484Z,11.90
2022-10-02T13:53:13.367Z,11.80
2022-10-02T13:55:13.340Z,11.80
2022-10-02T13:57:13.422Z,11.80
2022-10-02T13:59:13.414Z,11.80
2022-10-02T14:01:13.430Z,11.80
2022-10-02T14:03:13.361Z,11.80
2022-10-02T14:05:13.412Z,11.80
2022-10-02T14:07:13.412Z,11.80
2022-10-02T14:09:13.432Z,11.80
2022-10-02T14:11:14.968Z,11.80
2022-10-02T14:13:14.404Z,11.80
2022-10-02T14:15:13.408Z,11.70
2022-10-02T14:17:13.420Z,11.70
2022-10-02T14:19:13.368Z,11.70
2022-10-02T14:21:13.774Z,11.80
2022-10-02T14:23:13.503Z,11.80
2022-10-02T14:25:27.563Z,11.90
2022-10-02T14:27:27.593Z,11.90
2022-10-02T14:29:27.553Z,11.90
2022-10-02T14:31:27.656Z,12.00
2022-10-02T14:33:27.596Z,12.00
2022-10-02T14:35:27.616Z,12.00
2022-10-02T14:37:27.609Z,12.00
2022-10-02T14:39:27.505Z,12.00
2022-10-02T14:41:27.550Z,12.00
2022-10-02T14:43:27.595Z,12.10
2022-10-02T14:45:27.635Z,12.10
2022-10-02T14:47:27.623Z,12.00
2022-10-02T14:49:27.741Z,12.00
2022-10-02T14:51:27.629Z,12.00
2022-10-02T14:53:27.624Z,12.00
2022-10-02T14:55:27.546Z,12.00
2022-10-02T14:57:27.608Z,11.90
2022-10-02T14:59:27.590Z,12.00
2022-10-02T15:01:27.639Z,12.00
2022-10-02T15:03:27.603Z,11.90
2022-10-02T15:05:27.682Z,11.90
2022-10-02T15:07:27.643Z,11.80
2022-10-02T15:09:27.671Z,11.70
2022-10-02T15:11:27.599Z,11.70
2022-10-02T15:13:27.611Z,11.70
2022-10-02T15:15:28.682Z,11.60
2022-10-02T15:17:27.643Z,11.60
2022-10-02T15:19:27.648Z,11.60
2022-10-02T15:21:27.688Z,11.60
2022-10-02T15:23:27.561Z,11.60
2022-10-02T15:25:27.738Z,11.60
2022-10-02T15:27:27.584Z,11.70
2022-10-02T15:29:27.576Z,11.80
2022-10-02T15:31:57.727Z,11.70
2022-10-02T15:33:57.639Z,11.80
2022-10-02T15:35:57.643Z,11.80
2022-10-02T15:37:57.608Z,11.80
2022-10-02T15:39:57.724Z,11.70
2022-10-02T15:41:57.688Z,11.70
2022-10-02T15:43:57.632Z,11.60
2022-10-02T15:45:57.746Z,11.60
2022-10-02T15:47:57.673Z,11.50
2022-10-02T15:49:57.683Z,11.50
2022-10-02T15:51:57.714Z,11.40
2022-10-02T15:53:57.840Z,11.40
2022-10-02T15:55:57.895Z,11.40
2022-10-02T15:57:57.647Z,11.40
2022-10-02T15:59:57.636Z,11.40
2022-10-02T16:01:57.711Z,11.40
2022-10-02T16:03:57.646Z,11.40
2022-10-02T16:05:57.692Z,11.40
2022-10-02T16:07:57.681Z,11.40
2022-10-02T16:09:57.689Z,11.40
2022-10-02T16:11:57.758Z,11.30
2022-10-02T16:13:57.624Z,11.30
2022-10-02T16:15:57.704Z,11.30
2022-10-02T16:17:57.808Z,11.40
2022-10-02T16:19:57.694Z,11.30
2022-10-02T16:21:57.712Z,11.40
2022-10-02T16:23:57.637Z,11.40
2022-10-02T16:25:57.705Z,11.30
2022-10-02T16:27:57.680Z,11.30
2022-10-02T16:29:57.619Z,11.40
2022-10-02T16:31:57.715Z,11.30
2022-10-02T16:33:57.669Z,11.30
2022-10-02T16:35:57.693Z,11.30
2022-10-02T16:37:57.706Z,11.30
2022-10-02T16:39:57.691Z,11.20
2022-10-02T16:41:58.741Z,11.20
2022-10-02T16:43:57.660Z,11.20
2022-10-02T16:45:57.685Z,11.20
2022-10-02T16:47:57.728Z,11.20
2022-10-02T16:49:57.675Z,11.10
2022-10-02T16:51:59.634Z,11.10
2022-10-02T16:53:57.759Z,11.10
2022-10-02T16:55:57.716Z,11.10
2022-10-02T16:57:57.627Z,11.10
2022-10-02T16:59:57.647Z,11.10
2022-10-02T17:02:17.059Z,11.10
2022-10-02T17:03:59.057Z,11.10
2022-10-02T17:05:58.983Z,11.00
2022-10-02T17:07:57.851Z,11.00
2022-10-02T17:09:57.865Z,11.10
2022-10-02T17:11:57.938Z,11.10
2022-10-02T17:13:58.173Z,11.10
2022-10-02T17:15:59.078Z,11.10
2022-10-02T17:17:57.954Z,11.10
2022-10-02T17:19:57.976Z,11.10
2022-10-02T17:21:57.982Z,11.10
2022-10-02T17:23:58.067Z,11.10
2022-10-02T17:25:57.959Z,11.20
2022-10-02T17:27:57.916Z,11.20
2022-10-02T17:29:58.025Z,11.20
2022-10-02T17:32:28.246Z,11.20
2022-10-02T17:34:27.892Z,11.20
2022-10-02T17:36:27.948Z,11.20
2022-10-02T17:38:27.879Z,11.20
2022-10-02T17:40:28.926Z,11.20
2022-10-02T17:42:28.467Z,11.20
2022-10-02T17:44:27.949Z,11.20
2022-10-02T17:46:28.925Z,11.20
2022-10-02T17:48:28.632Z,11.20
2022-10-02T17:50:27.979Z,11.20
2022-10-02T17:52:27.951Z,11.20
2022-10-02T17:54:27.838Z,11.20
2022-10-02T17:56:27.957Z,11.20
2022-10-02T17:58:28.012Z,11.20
2022-10-02T18:00:29.401Z,11.20
2022-10-02T18:02:28.696Z,11.10
2022-10-02T18:04:27.878Z,11.10
2022-10-02T18:06:27.759Z,11.10
2022-10-02T18:08:30.463Z,11.10
2022-10-02T18:10:27.790Z,11.00
2022-10-02T18:12:27.808Z,11.00
2022-10-02T18:14:27.698Z,10.90
2022-10-02T18:16:27.862Z,10.90
2022-10-02T18:18:27.692Z,10.90
2022-10-02T18:20:28.646Z,10.90
2022-10-02T18:22:28.198Z,10.90
2022-10-02T18:24:27.652Z,10.80
2022-10-02T18:26:27.924Z,10.80
2022-10-02T18:28:27.837Z,10.80
2022-10-02T18:30:27.696Z,10.80
2022-10-02T18:32:27.747Z,10.80
2022-10-02T18:34:27.796Z,10.80
2022-10-02T18:36:28.802Z,10.80
2022-10-02T18:38:27.663Z,10.80
2022-10-02T18:40:27.758Z,10.80
2022-10-02T18:42:27.723Z,10.80
2022-10-02T18:44:27.658Z,10.80
2022-10-02T18:46:27.753Z,10.80
2022-10-02T18:48:27.739Z,10.80
2022-10-02T18:50:27.748Z,10.70
2022-10-02T18:52:27.840Z,10.70
2022-10-02T18:54:27.809Z,10.70
2022-10-02T18:56:27.858Z,10.70
2022-10-02T18:58:27.737Z,10.70
2022-10-02T19:00:27.724Z,10.60
2022-10-02T19:02:27.856Z,10.70
2022-10-02T19:04:27.771Z,10.70
2022-10-02T19:06:27.772Z,10.70
2022-10-02T19:08:27.842Z,10.70
2022-10-02T19:10:27.769Z,10.70
2022-10-02T19:12:27.834Z,10.70
2022-10-02T19:14:27.819Z,10.70
2022-10-02T19:16:27.766Z,10.80
2022-10-02T19:18:27.668Z,10.80
2022-10-02T19:20:27.753Z,10.80
2022-10-02T19:22:27.799Z,10.80
2022-10-02T19:24:27.744Z,10.80
2022-10-02T19:26:27.821Z,10.80
2022-10-02T19:28:27.843Z,10.80
2022-10-02T19:30:57.876Z,10.80
2022-10-02T19:32:57.701Z,10.80
2022-10-02T19:34:57.747Z,10.80
2022-10-02T19:36:57.768Z,10.80
2022-10-02T19:38:57.838Z,10.80
2022-10-02T19:40:57.797Z,10.80
2022-10-02T19:42:57.824Z,10.70
2022-10-02T19:44:57.873Z,10.70
2022-10-02T19:46:57.741Z,10.70
2022-10-02T19:48:57.883Z,10.70
2022-10-02T19:50:57.748Z,10.60
2022-10-02T19:52:57.795Z,10.60
2022-10-02T19:54:57.822Z,10.60
2022-10-02T19:56:57.707Z,10.50
2022-10-02T19:58:57.738Z,10.50
2022-10-02T20:00:57.807Z,10.50
2022-10-02T20:02:57.744Z,10.50
2022-10-02T20:04:57.757Z,10.50
2022-10-02T20:06:57.736Z,10.50
2022-10-02T20:08:57.805Z,10.60
2022-10-02T20:10:57.798Z,10.60
2022-10-02T20:12:57.832Z,10.60
2022-10-02T20:14:57.861Z,10.60
2022-10-02T20:16:57.769Z,10.60
2022-10-02T20:18:57.870Z,10.60
2022-10-02T20:20:57.758Z,10.60
2022-10-02T20:22:57.743Z,10.60
2022-10-02T20:24:57.732Z,10.60
2022-10-02T20:26:57.732Z,10.60
2022-10-02T20:28:57.888Z,10.60
2022-10-02T20:30:57.876Z,10.60
2022-10-02T20:32:57.770Z,10.60
2022-10-02T20:34:57.722Z,10.70
2022-10-02T20:36:57.847Z,10.70
2022-10-02T20:38:57.886Z,10.60
2022-10-02T20:40:57.828Z,10.60
2022-10-02T20:42:57.874Z,10.60
2022-10-02T20:44:57.772Z,10.60
2022-10-02T20:46:57.895Z,10.60
2022-10-02T20:49:07.468Z,10.60
2022-10-02T20:50:57.798Z,10.60
2022-10-02T20:52:57.774Z,10.60
2022-10-02T20:54:57.783Z,10.60
2022-10-02T20:56:57.867Z,10.60
2022-10-02T20:58:57.873Z,10.60
2022-10-02T21:00:57.830Z,10.60
2022-10-02T21:02:57.936Z,10.60
2022-10-02T21:04:57.880Z,10.60
2022-10-02T21:06:57.803Z,10.60
2022-10-02T21:08:57.850Z,10.60
2022-10-02T21:10:57.812Z,10.60
2022-10-02T21:12:57.894Z,10.60
2022-10-02T21:14:57.873Z,10.50
2022-10-02T21:16:57.962Z,10.50
2022-10-02T21:18:57.803Z,10.50
2022-10-02T21:20:57.823Z,10.50
2022-10-02T21:22:57.871Z,10.50
2022-10-02T21:27:27.939Z,10.50
2022-10-02T21:29:27.945Z,10.50
2022-10-02T21:31:27.846Z,10.50
2022-10-02T21:33:27.943Z,10.50
2022-10-02T21:35:27.908Z,10.50
2022-10-02T21:37:27.837Z,10.50
2022-10-02T21:39:27.902Z,10.50
2022-10-02T21:41:27.821Z,10.50
2022-10-02T21:45:10.384Z,10.50
2022-10-02T21:47:10.286Z,10.50
2022-10-02T21:49:10.296Z,10.50
2022-10-02T21:51:10.335Z,10.50
2022-10-02T21:53:10.268Z,10.50
2022-10-02T21:55:10.225Z,10.50
2022-10-02T21:57:10.282Z,10.50
2022-10-02T21:59:10.327Z,10.50
2022-10-02T22:01:10.365Z,10.50
2022-10-02T22:03:10.327Z,10.50
2022-10-02T22:05:10.264Z,10.50
2022-10-02T22:07:10.225Z,10.50
2022-10-02T22:09:10.265Z,10.50
2022-10-02T22:11:10.309Z,10.50
2022-10-02T22:13:10.292Z,10.20
2022-10-02T22:15:41.363Z,10.10
2022-10-02T22:17:41.341Z,10.10
2022-10-02T22:19:40.318Z,10.10
2022-10-02T22:21:40.562Z,10.00
2022-10-02T22:23:40.332Z,10.00
2022-10-02T22:25:40.320Z,10.00
2022-10-02T22:27:41.310Z,10.00
2022-10-02T22:29:41.364Z,10.00
2022-10-02T22:31:41.732Z,10.00
2022-10-02T22:33:40.339Z,9.90
2022-10-02T22:35:40.391Z,9.90
2022-10-02T22:37:40.270Z,9.80
2022-10-02T22:39:40.344Z,9.80
2022-10-02T22:41:40.548Z,9.80
2022-10-02T22:43:40.299Z,9.80
2022-10-02T22:45:40.419Z,9.80
2022-10-02T22:47:40.275Z,9.80
2022-10-02T22:49:41.280Z,9.80
2022-10-02T22:51:40.744Z,10.00
2022-10-02T22:53:40.436Z,10.00
2022-10-02T22:55:40.326Z,10.00
2022-10-02T22:57:41.338Z,10.00
2022-10-02T22:59:41.342Z,10.00
2022-10-02T23:01:40.539Z,10.00
2022-10-02T23:03:40.382Z,10.00
2022-10-02T23:05:40.362Z,9.90
2022-10-02T23:07:40.392Z,9.90
2022-10-02T23:09:40.325Z,9.90
2022-10-02T23:11:40.550Z,9.80
2022-10-02T23:13:41.370Z,9.80
2022-10-02T23:15:40.405Z,9.70
2022-10-02T23:17:40.353Z,9.70
2022-10-02T23:19:40.418Z,9.70
2022-10-02T23:21:44.671Z,9.60
2022-10-02T23:23:40.325Z,9.70
2022-10-02T23:25:41.324Z,9.70
2022-10-02T23:27:40.371Z,9.70
2022-10-02T23:29:40.367Z,9.70
2022-10-02T23:31:40.728Z,9.70
2022-10-02T23:33:40.269Z,9.80
2022-10-02T23:35:40.935Z,9.80
2022-10-02T23:37:40.356Z,9.80
2022-10-02T23:39:40.271Z,9.80
2022-10-02T23:41:41.914Z,9.80
2022-10-02T23:43:40.303Z,9.80
2022-10-02T23:45:40.364Z,9.80
2022-10-02T23:47:40.464Z,9.80
2022-10-02T23:49:41.377Z,9.80
2022-10-02T23:51:40.705Z,9.90
2022-10-02T23:53:41.330Z,9.90
2022-10-02T23:55:40.387Z,9.90
2022-10-02T23:57:40.319Z,9.90
2022-10-02T23:59:40.297Z,9.90
